createdAt,value
2023-01-02T00:01:05.405Z,15.00
2023-01-02T00:03:32.468Z,15.00
2023-01-02T00:06:05.187Z,15.10
2023-01-02T00:08:32.298Z,15.10
2023-01-02T00:10:59.267Z,15.10
2023-01-02T00:13:26.261Z,15.10
2023-01-02T00:15:53.139Z,15.10
2023-01-02T00:18:20.083Z,15.10
2023-01-02T00:20:46.988Z,15.00
2023-01-02T00:23:13.876Z,15.00
2023-01-02T00:25:41.537Z,15.10
2023-01-02T00:28:08.608Z,15.10
2023-01-02T00:30:38.915Z,15.10
2023-01-02T00:33:07.248Z,15.00
2023-01-02T00:35:36.993Z,15.00
2023-01-02T00:38:04.119Z,15.00
2023-01-02T00:40:31.149Z,15.00
2023-01-02T00:42:58.130Z,15.00
2023-01-02T00:45:25.822Z,15.00
2023-01-02T00:47:52.690Z,15.00
2023-01-02T00:50:19.827Z,15.00
2023-01-02T00:52:46.693Z,15.00
2023-01-02T00:55:13.541Z,15.00
2023-01-02T00:57:40.484Z,15.00
2023-01-02T01:00:07.992Z,15.10
2023-01-02T01:02:34.984Z,15.10
2023-01-02T01:05:02.597Z,15.10
2023-01-02T01:07:29.908Z,15.10
2023-01-02T01:09:56.786Z,15.10
2023-01-02T01:12:23.675Z,15.10
2023-01-02T01:14:50.773Z,15.10
2023-01-02T01:17:17.669Z,15.20
2023-01-02T01:19:44.587Z,15.20
2023-01-02T01:22:12.050Z,15.30
2023-01-02T01:24:38.916Z,15.30
2023-01-02T01:27:05.793Z,15.40
2023-01-02T01:29:32.685Z,15.40
2023-01-02T01:31:59.573Z,15.40
2023-01-02T01:34:26.449Z,15.40
2023-01-02T01:36:53.335Z,15.40
2023-01-02T01:39:20.251Z,15.50
2023-01-02T01:41:47.096Z,15.50
2023-01-02T01:44:52.613Z,15.40
2023-01-02T01:47:37.648Z,15.40
2023-01-02T01:50:22.422Z,15.50
2023-01-02T01:53:00.423Z,15.40
2023-01-02T01:55:36.539Z,15.40
2023-01-02T01:58:09.220Z,15.40
2023-01-02T02:00:37.335Z,15.40
2023-01-02T02:03:11.596Z,15.50
2023-01-02T02:05:39.746Z,15.50
2023-01-02T02:08:31.349Z,15.50
2023-01-02T02:10:59.618Z,15.50
2023-01-02T02:13:27.006Z,15.50
2023-01-02T02:16:06.363Z,15.50
2023-01-02T02:19:04.312Z,15.60
2023-01-02T02:21:55.989Z,15.50
2023-01-02T02:24:35.059Z,15.60
2023-01-02T02:27:23.578Z,15.50
2023-01-02T02:30:11.508Z,15.50
2023-01-02T02:33:08.731Z,15.50
2023-01-02T02:36:13.919Z,15.50
2023-01-02T02:38:48.088Z,15.50
2023-01-02T02:41:26.692Z,15.50
2023-01-02T02:44:12.152Z,15.50
2023-01-02T02:46:53.838Z,15.50
2023-01-02T02:49:42.545Z,15.50
2023-01-02T02:52:29.520Z,15.50
2023-01-02T02:55:11.546Z,15.50
2023-01-02T02:57:42.247Z,15.50
2023-01-02T03:00:14.514Z,15.50
2023-01-02T03:02:41.623Z,15.60
2023-01-02T03:05:12.733Z,15.60
2023-01-02T03:08:04.122Z,15.70
2023-01-02T03:10:37.610Z,15.70
2023-01-02T03:13:42.468Z,15.70
2023-01-02T03:16:30.151Z,15.70
2023-01-02T03:19:05.887Z,15.80
2023-01-02T03:21:46.194Z,15.70
2023-01-02T03:24:16.685Z,15.80
2023-01-02T03:26:46.305Z,15.80
2023-01-02T03:29:17.497Z,15.80
2023-01-02T03:31:51.551Z,15.80
2023-01-02T03:34:22.902Z,15.80
2023-01-02T03:36:53.928Z,15.90
2023-01-02T03:39:33.850Z,15.90
2023-01-02T03:42:06.662Z,15.90
2023-01-02T03:45:12.543Z,15.90
2023-01-02T03:47:46.129Z,15.90
2023-01-02T03:50:19.627Z,15.90
2023-01-02T03:52:46.654Z,15.90
2023-01-02T03:55:15.236Z,15.90
2023-01-02T03:58:00.738Z,15.90
2023-01-02T04:00:42.622Z,15.90
2023-01-02T04:03:28.983Z,15.90
2023-01-02T04:06:03.907Z,15.90
2023-01-02T04:08:50.713Z,15.90
2023-01-02T04:11:20.800Z,15.90
2023-01-02T04:13:53.866Z,15.90
2023-01-02T04:16:27.764Z,16.00
2023-01-02T04:19:03.473Z,15.90
2023-01-02T04:21:33.478Z,15.90
2023-01-02T04:24:07.934Z,15.90
2023-01-02T04:27:05.353Z,15.90
2023-01-02T04:29:32.389Z,15.90
2023-01-02T04:32:37.908Z,15.90
2023-01-02T04:35:15.000Z,15.90
2023-01-02T04:37:43.938Z,15.90
2023-01-02T04:40:28.982Z,15.90
2023-01-02T04:42:56.207Z,15.90
2023-01-02T04:45:23.682Z,15.90
2023-01-02T04:47:51.112Z,15.90
2023-01-02T04:50:18.916Z,15.90
2023-01-02T04:52:45.798Z,15.90
2023-01-02T04:55:12.767Z,15.90
2023-01-02T04:57:39.881Z,15.90
2023-01-02T05:00:08.538Z,15.90
2023-01-02T05:02:36.697Z,15.90
2023-01-02T05:05:04.527Z,15.90
2023-01-02T05:07:33.608Z,15.90
2023-01-02T05:10:00.521Z,15.80
2023-01-02T05:12:27.448Z,15.80
2023-01-02T05:14:54.309Z,15.80
2023-01-02T05:17:21.219Z,15.80
2023-01-02T05:19:48.053Z,15.80
2023-01-02T05:22:33.220Z,15.80
2023-01-02T05:25:00.096Z,15.80
2023-01-02T05:27:26.994Z,15.80
2023-01-02T05:29:53.885Z,15.80
2023-01-02T05:32:20.744Z,15.80
2023-01-02T05:34:47.656Z,15.80
2023-01-02T05:37:14.536Z,15.80
2023-01-02T05:39:41.381Z,15.80
2023-01-02T05:42:08.271Z,15.70
2023-01-02T05:44:35.143Z,15.70
2023-01-02T05:47:02.001Z,15.50
2023-01-02T05:49:28.928Z,15.30
2023-01-02T05:51:55.847Z,15.20
2023-01-02T05:54:22.747Z,15.00
2023-01-02T05:56:49.574Z,14.80
2023-01-02T05:59:17.132Z,14.70
2023-01-02T06:01:45.525Z,14.60
2023-01-02T06:04:17.583Z,14.50
2023-01-02T06:06:47.201Z,14.40
2023-01-02T06:09:15.672Z,14.30
2023-01-02T06:11:43.357Z,14.30
2023-01-02T06:14:10.769Z,14.30
2023-01-02T06:16:38.784Z,14.20
2023-01-02T06:19:06.033Z,14.10
2023-01-02T06:21:33.368Z,14.10
2023-01-02T06:24:00.338Z,14.00
2023-01-02T06:26:34.294Z,14.00
2023-01-02T06:29:01.699Z,13.90
2023-01-02T06:31:29.865Z,13.90
2023-01-02T06:33:58.900Z,13.80
2023-01-02T06:36:28.901Z,13.90
2023-01-02T06:38:55.768Z,13.80
2023-01-02T06:41:22.742Z,13.80
2023-01-02T06:43:51.047Z,13.80
2023-01-02T06:46:20.585Z,13.80
2023-01-02T06:48:47.896Z,13.80
2023-01-02T06:51:20.432Z,13.90
2023-01-02T06:53:47.447Z,13.90
2023-01-02T06:56:17.775Z,13.90
2023-01-02T06:58:44.655Z,13.90
2023-01-02T07:01:14.873Z,14.00
2023-01-02T07:03:42.310Z,14.00
2023-01-02T07:06:14.959Z,14.00
2023-01-02T07:08:43.433Z,14.00
2023-01-02T07:11:18.692Z,14.00
2023-01-02T07:13:47.069Z,14.00
2023-01-02T07:16:16.355Z,14.00
2023-01-02T07:18:43.844Z,14.00
2023-01-02T07:21:11.843Z,14.00
2023-01-02T07:23:39.186Z,13.90
2023-01-02T07:26:07.175Z,13.90
2023-01-02T07:28:35.914Z,13.80
2023-01-02T07:31:05.948Z,13.80
2023-01-02T07:33:33.899Z,13.70
2023-01-02T07:36:03.364Z,13.70
2023-01-02T07:38:30.881Z,13.60
2023-01-02T07:40:57.789Z,13.60
2023-01-02T07:43:24.720Z,13.60
2023-01-02T07:45:51.717Z,13.60
2023-01-02T07:48:19.325Z,13.50
2023-01-02T07:50:46.647Z,13.50
2023-01-02T07:53:13.896Z,13.50
2023-01-02T07:55:40.811Z,13.40
2023-01-02T07:58:07.811Z,13.40
2023-01-02T08:00:34.682Z,13.40
2023-01-02T08:03:02.012Z,13.40
2023-01-02T08:05:28.900Z,13.30
2023-01-02T08:07:55.770Z,13.30
2023-01-02T08:10:23.140Z,13.30
2023-01-02T08:12:50.065Z,13.30
2023-01-02T08:15:17.044Z,13.20
2023-01-02T08:17:44.017Z,13.20
2023-01-02T08:20:11.476Z,13.20
2023-01-02T08:22:38.584Z,13.20
2023-01-02T08:25:06.126Z,13.30
2023-01-02T08:27:33.301Z,13.30
2023-01-02T08:30:00.214Z,13.40
2023-01-02T08:32:27.118Z,13.40
2023-01-02T08:34:53.972Z,13.40
2023-01-02T08:37:20.851Z,13.30
2023-01-02T08:39:47.760Z,13.30
2023-01-02T08:42:14.809Z,13.30
2023-01-02T08:44:43.294Z,13.30
2023-01-02T08:47:10.211Z,13.30
2023-01-02T08:49:37.212Z,13.40
2023-01-02T08:52:04.083Z,13.40
2023-01-02T08:54:31.105Z,13.40
2023-01-02T08:56:58.090Z,13.40
2023-01-02T08:59:25.891Z,13.40
2023-01-02T09:01:53.181Z,13.40
2023-01-02T09:04:20.877Z,13.50
2023-01-02T09:06:47.961Z,13.50
2023-01-02T09:09:17.052Z,13.50
2023-01-02T09:11:51.994Z,13.50
2023-01-02T09:14:21.554Z,13.50
2023-01-02T09:16:49.765Z,13.50
2023-01-02T09:19:16.857Z,13.60
2023-01-02T09:21:43.785Z,13.60
2023-01-02T09:24:11.360Z,13.60
2023-01-02T09:26:38.328Z,13.60
2023-01-02T09:29:05.656Z,13.60
2023-01-02T09:31:32.717Z,13.60
2023-01-02T09:33:59.705Z,13.60
2023-01-02T09:36:26.880Z,13.60
2023-01-02T09:38:59.147Z,13.60
2023-01-02T09:41:42.450Z,13.70
2023-01-02T09:44:13.629Z,13.70
2023-01-02T09:46:53.088Z,13.70
2023-01-02T09:49:24.319Z,13.70
2023-01-02T09:51:51.539Z,13.60
2023-01-02T09:54:31.452Z,13.60
2023-01-02T09:57:22.402Z,13.60
2023-01-02T10:00:06.054Z,13.60
2023-01-02T10:03:07.370Z,13.50
2023-01-02T10:05:55.806Z,13.60
2023-01-02T10:08:47.925Z,13.50
2023-01-02T10:11:26.625Z,13.60
2023-01-02T10:16:56.309Z,13.60
2023-01-02T10:19:50.895Z,13.60
2023-01-02T10:22:26.300Z,13.60
2023-01-02T10:25:32.743Z,13.60
2023-01-02T10:28:25.314Z,13.70
2023-01-02T10:31:05.509Z,13.80
2023-01-02T10:33:48.971Z,13.80
2023-01-02T10:36:30.649Z,13.80
2023-01-02T10:39:00.364Z,13.80
2023-01-02T10:41:29.439Z,13.90
2023-01-02T10:44:02.750Z,13.90
2023-01-02T10:46:33.632Z,13.90
2023-01-02T10:49:01.783Z,13.90
2023-01-02T10:51:29.575Z,13.90
2023-01-02T10:54:02.083Z,13.90
2023-01-02T10:56:32.361Z,13.90
2023-01-02T10:59:06.107Z,13.90
2023-01-02T11:01:33.783Z,13.90
2023-01-02T11:04:00.775Z,13.90
2023-01-02T11:06:39.465Z,13.90
2023-01-02T11:09:22.037Z,13.90
2023-01-02T11:12:07.178Z,13.90
2023-01-02T11:14:36.139Z,13.90
2023-01-02T11:17:18.139Z,13.90
2023-01-02T11:19:48.727Z,13.90
2023-01-02T11:22:19.921Z,13.90
2023-01-02T11:24:59.929Z,13.90
2023-01-02T11:27:45.800Z,13.90
2023-01-02T11:30:27.139Z,13.90
2023-01-02T11:33:28.653Z,14.00
2023-01-02T11:35:58.442Z,14.00
2023-01-02T11:38:45.107Z,14.00
2023-01-02T11:41:45.961Z,14.00
2023-01-02T11:44:20.595Z,14.00
2023-01-02T11:46:48.613Z,14.00
2023-01-02T11:49:21.332Z,14.00
2023-01-02T11:51:57.944Z,14.00
2023-01-02T11:54:45.252Z,14.10
2023-01-02T11:57:26.005Z,14.00
2023-01-02T11:59:53.847Z,14.00
2023-01-02T12:02:39.818Z,14.10
2023-01-02T12:05:39.220Z,14.00
2023-01-02T12:08:34.922Z,14.00
2023-01-02T12:11:17.181Z,13.90
2023-01-02T12:13:55.274Z,14.00
2023-01-02T12:16:38.414Z,14.00
2023-01-02T12:19:47.957Z,13.90
2023-01-02T12:22:48.795Z,14.00
2023-01-02T12:25:48.624Z,14.00
2023-01-02T12:29:03.334Z,14.00
2023-01-02T12:31:33.036Z,14.00
2023-01-02T12:34:12.582Z,14.00
2023-01-02T12:36:48.487Z,14.00
2023-01-02T12:39:18.310Z,14.00
2023-01-02T12:42:07.443Z,14.00
2023-01-02T12:44:48.879Z,14.00
2023-01-02T12:47:32.837Z,14.00
2023-01-02T12:50:26.701Z,14.00
2023-01-02T12:52:53.561Z,14.00
2023-01-02T12:55:29.299Z,14.00
2023-01-02T12:58:06.327Z,13.90
2023-01-02T13:00:52.235Z,13.90
2023-01-02T13:03:51.338Z,13.90
2023-01-02T13:06:44.370Z,13.90
2023-01-02T13:09:28.696Z,13.80
2023-01-02T13:12:19.602Z,13.80
2023-01-02T13:14:52.132Z,13.80
2023-01-02T13:17:38.615Z,13.80
2023-01-02T13:20:24.640Z,13.70
2023-01-02T13:23:19.524Z,13.70
2023-01-02T13:25:52.359Z,13.60
2023-01-02T13:28:24.397Z,13.60
2023-01-02T13:31:00.933Z,13.60
2023-01-02T13:33:44.672Z,13.60
2023-01-02T13:36:20.820Z,13.60
2023-01-02T13:38:53.302Z,13.60
2023-01-02T13:41:21.084Z,13.60
2023-01-02T13:43:55.988Z,13.70
2023-01-02T13:47:01.893Z,13.60
2023-01-02T13:49:21.274Z,13.60
2023-01-02T13:51:48.232Z,13.60
2023-01-02T13:54:20.793Z,13.60
2023-01-02T13:57:25.208Z,13.60
2023-01-02T13:59:57.870Z,13.60
2023-01-02T14:02:24.982Z,13.70
2023-01-02T14:04:52.117Z,13.60
2023-01-02T14:07:25.120Z,13.70
2023-01-02T14:10:10.332Z,13.70
2023-01-02T14:12:53.210Z,13.70
2023-01-02T14:15:26.501Z,13.70
2023-01-02T14:18:03.823Z,13.70
2023-01-02T14:20:36.228Z,13.70
2023-01-02T14:23:06.642Z,13.70
2023-01-02T14:25:44.308Z,13.70
2023-01-02T14:28:20.980Z,13.60
2023-01-02T14:30:49.787Z,13.70
2023-01-02T14:33:34.894Z,13.60
2023-01-02T14:36:13.276Z,13.70
2023-01-02T14:38:53.967Z,13.60
2023-01-02T14:42:10.315Z,13.60
2023-01-02T14:44:46.867Z,13.60
2023-01-02T14:47:23.370Z,13.60
2023-01-02T14:49:57.807Z,13.60
2023-01-02T14:52:40.787Z,13.60
2023-01-02T14:55:24.136Z,13.60
2023-01-02T14:57:53.653Z,13.60
2023-01-02T15:00:39.223Z,13.60
2023-01-02T15:03:25.990Z,13.70
2023-01-02T15:06:03.537Z,13.60
2023-01-02T15:08:41.592Z,13.70
2023-01-02T15:11:40.299Z,13.60
2023-01-02T15:14:12.995Z,13.70
2023-01-02T15:16:52.574Z,13.60
2023-01-02T15:19:27.336Z,13.60
2023-01-02T15:21:54.799Z,13.50
2023-01-02T15:24:27.138Z,13.50
2023-01-02T15:26:54.116Z,13.50
2023-01-02T15:29:25.180Z,13.40
2023-01-02T15:32:00.277Z,13.40
2023-01-02T15:34:32.513Z,13.30
2023-01-02T15:37:03.687Z,13.30
2023-01-02T15:39:38.752Z,13.30
2023-01-02T15:42:26.431Z,13.30
2023-01-02T15:45:12.003Z,13.20
2023-01-02T15:47:43.375Z,13.20
2023-01-02T15:50:23.407Z,13.20
2023-01-02T15:53:02.305Z,13.30
2023-01-02T15:55:34.899Z,13.30
2023-01-02T15:58:14.795Z,13.30
2023-01-02T16:00:43.224Z,13.30
2023-01-02T16:03:11.983Z,13.30
2023-01-02T16:05:51.248Z,13.30
2023-01-02T16:08:26.358Z,13.30
2023-01-02T16:11:01.344Z,13.30
2023-01-02T16:13:54.983Z,13.20
2023-01-02T16:16:22.517Z,13.20
2023-01-02T16:18:53.454Z,13.20
2023-01-02T16:21:21.143Z,13.20
2023-01-02T16:23:52.497Z,13.10
2023-01-02T16:26:21.246Z,13.10
2023-01-02T16:28:51.164Z,13.10
2023-01-02T16:31:22.149Z,13.00
2023-01-02T16:33:49.386Z,13.00
2023-01-02T16:36:16.233Z,13.00
2023-01-02T16:39:34.058Z,13.00
2023-01-02T16:42:19.839Z,13.00
2023-01-02T16:44:55.386Z,13.00
2023-01-02T16:47:25.106Z,12.90
2023-01-02T16:49:52.207Z,12.90
2023-01-02T16:52:19.173Z,12.90
2023-01-02T16:54:49.287Z,12.90
2023-01-02T16:57:22.819Z,12.90
2023-01-02T16:59:49.747Z,12.90
2023-01-02T17:02:16.687Z,12.90
2023-01-02T17:04:43.559Z,12.90
2023-01-02T17:07:11.991Z,12.80
2023-01-02T17:09:41.471Z,12.80
2023-01-02T17:12:11.835Z,12.80
2023-01-02T17:14:38.763Z,12.80
2023-01-02T17:17:05.733Z,12.80
2023-01-02T17:19:32.613Z,12.80
2023-01-02T17:21:59.491Z,12.80
2023-01-02T17:24:26.399Z,12.80
2023-01-02T17:26:53.431Z,12.80
2023-01-02T17:29:20.353Z,12.80
2023-01-02T17:31:47.225Z,12.70
2023-01-02T17:34:14.130Z,12.70
2023-01-02T17:36:42.436Z,12.70
2023-01-02T17:39:09.373Z,12.60
2023-01-02T17:41:36.298Z,12.60
2023-01-02T17:44:04.001Z,12.60
2023-01-02T17:47:09.480Z,12.60
2023-01-02T17:49:21.002Z,12.60
2023-01-02T17:51:47.939Z,12.60
2023-01-02T17:54:14.808Z,12.60
2023-01-02T17:56:41.875Z,12.60
2023-01-02T17:59:08.892Z,12.60
2023-01-02T18:01:35.802Z,12.60
2023-01-02T18:04:02.703Z,12.60
2023-01-02T18:06:29.552Z,12.50
2023-01-02T18:08:56.523Z,12.50
2023-01-02T18:11:23.781Z,12.50
2023-01-02T18:13:55.156Z,12.40
2023-01-02T18:16:32.330Z,12.30
2023-01-02T18:19:01.359Z,12.20
2023-01-02T18:21:31.978Z,12.10
2023-01-02T18:24:02.892Z,12.10
2023-01-02T18:26:31.076Z,12.00
2023-01-02T18:29:04.251Z,12.00
2023-01-02T18:31:41.254Z,12.00
2023-01-02T18:34:47.094Z,12.00
2023-01-02T18:37:27.575Z,12.00
2023-01-02T18:39:55.851Z,12.00
2023-01-02T18:42:26.669Z,12.00
2023-01-02T18:44:59.280Z,11.90
2023-01-02T18:47:37.193Z,11.90
2023-01-02T18:50:16.953Z,11.80
2023-01-02T18:52:48.888Z,11.80
2023-01-02T18:55:34.118Z,11.80
2023-01-02T18:58:10.193Z,11.70
2023-01-02T19:00:39.887Z,11.70
2023-01-02T19:03:25.733Z,11.60
2023-01-02T19:05:53.882Z,11.60
2023-01-02T19:08:36.370Z,11.50
2023-01-02T19:11:36.777Z,11.50
2023-01-02T19:14:16.487Z,11.50
2023-01-02T19:16:43.856Z,11.50
2023-01-02T19:19:19.687Z,11.40
2023-01-02T19:21:47.099Z,11.40
2023-01-02T19:24:24.399Z,11.50
2023-01-02T19:26:57.848Z,11.50
2023-01-02T19:29:27.617Z,11.50
2023-01-02T19:32:16.783Z,11.50
2023-01-02T19:34:48.186Z,11.50
2023-01-02T19:37:33.811Z,11.50
2023-01-02T19:40:04.314Z,11.40
2023-01-02T19:42:32.147Z,11.40
2023-01-02T19:45:15.177Z,11.40
2023-01-02T19:47:42.835Z,11.40
2023-01-02T19:50:13.315Z,11.40
2023-01-02T19:52:40.309Z,11.40
2023-01-02T19:55:08.762Z,11.40
2023-01-02T19:57:35.810Z,11.40
2023-01-02T20:00:05.149Z,11.40
2023-01-02T20:02:40.021Z,11.40
2023-01-02T20:05:07.627Z,11.40
2023-01-02T20:07:34.643Z,11.40
2023-01-02T20:10:01.617Z,11.40
2023-01-02T20:12:34.520Z,11.30
2023-01-02T20:15:11.066Z,11.20
2023-01-02T20:17:39.275Z,11.10
2023-01-02T20:20:09.083Z,11.00
2023-01-02T20:22:36.388Z,10.90
2023-01-02T20:25:03.915Z,10.80
2023-01-02T20:27:30.954Z,10.70
2023-01-02T20:29:57.939Z,10.70
2023-01-02T20:32:25.254Z,10.70
2023-01-02T20:34:52.398Z,10.60
2023-01-02T20:37:22.367Z,10.60
2023-01-02T20:39:53.312Z,10.50
2023-01-02T20:42:21.151Z,10.40
2023-01-02T20:44:49.111Z,10.40
2023-01-02T20:47:16.389Z,10.40
2023-01-02T20:49:43.361Z,10.30
2023-01-02T20:52:10.389Z,10.30
2023-01-02T20:54:37.565Z,10.20
2023-01-02T20:57:04.710Z,10.20
2023-01-02T20:59:31.921Z,10.10
2023-01-02T21:01:59.033Z,10.10
2023-01-02T21:04:32.535Z,10.00
2023-01-02T21:07:04.670Z,10.00
2023-01-02T21:09:31.577Z,10.00
2023-01-02T21:11:58.491Z,10.00
2023-01-02T21:14:25.436Z,10.00
2023-01-02T21:16:52.458Z,10.00
2023-01-02T21:19:19.422Z,10.00
2023-01-02T21:21:46.285Z,9.90
2023-01-02T21:24:13.166Z,9.90
2023-01-02T21:26:40.112Z,9.90
2023-01-02T21:29:07.052Z,9.90
2023-01-02T21:31:34.132Z,9.90
2023-01-02T21:34:01.150Z,9.90
2023-01-02T21:36:28.357Z,9.80
2023-01-02T21:38:55.595Z,9.80
2023-01-02T21:41:40.925Z,9.80
2023-01-02T21:44:07.858Z,9.80
2023-01-02T21:46:34.814Z,9.70
2023-01-02T21:49:01.663Z,9.70
2023-01-02T21:51:32.734Z,9.70
2023-01-02T21:54:00.211Z,9.70
2023-01-02T21:56:27.340Z,9.70
2023-01-02T21:58:55.098Z,9.60
2023-01-02T22:01:22.380Z,9.70
2023-01-02T22:03:49.469Z,9.70
2023-01-02T22:06:18.226Z,9.70
2023-01-02T22:08:45.305Z,9.70
2023-01-02T22:11:30.643Z,9.70
2023-01-02T22:13:57.711Z,9.70
2023-01-02T22:16:24.621Z,9.60
2023-01-02T22:18:51.475Z,9.60
2023-01-02T22:21:18.359Z,9.50
2023-01-02T22:23:45.172Z,9.50
2023-01-02T22:26:12.039Z,9.50
2023-01-02T22:28:42.725Z,9.50
2023-01-02T22:31:11.051Z,9.50
2023-01-02T22:33:38.264Z,9.50
2023-01-02T22:36:05.451Z,9.50
2023-01-02T22:38:32.387Z,9.50
2023-01-02T22:41:02.671Z,9.50
2023-01-02T22:43:35.669Z,9.50
2023-01-02T22:46:08.010Z,9.40
2023-01-02T22:48:37.237Z,9.40
2023-01-02T22:51:08.546Z,9.40
2023-01-02T22:53:37.449Z,9.40
2023-01-02T22:56:34.858Z,9.50
2023-01-02T22:59:01.725Z,9.40
2023-01-02T23:01:32.898Z,9.40
2023-01-02T23:04:00.232Z,9.40
2023-01-02T23:06:27.630Z,9.40
2023-01-02T23:08:54.705Z,9.40
2023-01-02T23:11:22.470Z,9.40
2023-01-02T23:13:54.705Z,9.40
2023-01-02T23:16:56.265Z,9.40
2023-01-02T23:19:25.015Z,9.50
2023-01-02T23:21:57.016Z,9.50
2023-01-02T23:24:36.817Z,9.50
2023-01-02T23:27:06.783Z,9.60
2023-01-02T23:29:33.824Z,9.60
2023-01-02T23:32:00.942Z,9.70
2023-01-02T23:34:29.259Z,9.70
2023-01-02T23:36:58.157Z,9.70
2023-01-02T23:39:29.038Z,9.80
2023-01-02T23:41:56.911Z,9.90
2023-01-02T23:44:24.600Z,9.90
2023-01-02T23:46:51.593Z,9.90
2023-01-02T23:49:18.515Z,9.90
2023-01-02T23:51:45.416Z,9.90
2023-01-02T23:54:15.632Z,9.80
2023-01-02T23:56:44.945Z,9.70
2023-01-02T23:59:15.611Z,9.70
